Time;durP1;ratioP1;P1;durP2;ratioP2;P2;SDS_P1;SDS_P2;PMS_P1;PMS_P2;Temp;Humidity;BMP_temperature;BMP_pressure;BME280_temperature;BME280_humidity;BME280_pressure;Samples;Min_cycle;Max_cycle;Signal;HPM_P1;HPM_P2
2021/01/31 00:00:26;;;;;;;5.50;4.07;;;4.50;99.90;;;;;;5038367;28;21312;-61
2021/01/31 00:02:51;;;;;;;5.00;3.87;;;4.50;99.90;;;;;;5056444;28;20524;-61
2021/01/31 00:05:19;;;;;;;5.97;4.20;;;4.50;99.90;;;;;;5044011;28;20509;-62
2021/01/31 00:07:45;;;;;;;7.20;4.80;;;4.50;99.90;;;;;;5037568;28;20223;-62
2021/01/31 00:10:14;;;;;;;6.03;3.90;;;4.50;99.90;;;;;;5043943;28;20524;-61
2021/01/31 00:12:40;;;;;;;7.47;4.53;;;4.50;99.90;;;;;;5040881;28;20739;-61
2021/01/31 00:15:08;;;;;;;10.37;5.43;;;4.50;99.90;;;;;;5044432;28;20465;-61
2021/01/31 00:17:34;;;;;;;8.77;5.10;;;4.50;99.90;;;;;;5037309;28;21063;-61
2021/01/31 00:20:00;;;;;;;10.33;4.93;;;4.50;99.90;;;;;;5041450;28;20599;-61
2021/01/31 00:22:26;;;;;;;6.53;4.07;;;4.50;99.90;;;;;;5044527;28;20183;-62
2021/01/31 00:24:54;;;;;;;6.17;4.33;;;4.50;99.90;;;;;;5041729;28;20445;-61
2021/01/31 00:27:24;;;;;;;6.40;4.43;;;4.40;99.90;;;;;;5035378;28;20222;-62
2021/01/31 00:29:51;;;;;;;4.80;4.30;;;4.40;99.90;;;;;;5044414;28;20422;-61
2021/01/31 00:32:28;;;;;;;8.73;4.67;;;4.30;99.90;;;;;;5047050;28;20457;-62
2021/01/31 00:34:56;;;;;;;9.37;3.73;;;4.30;99.90;;;;;;5045448;28;20938;-61
2021/01/31 00:37:23;;;;;;;5.53;3.73;;;4.30;99.90;;;;;;5047732;28;20457;-61
2021/01/31 00:39:50;;;;;;;6.07;4.00;;;4.20;99.90;;;;;;5049613;28;20544;-62
2021/01/31 00:42:17;;;;;;;7.07;4.50;;;4.20;99.90;;;;;;5041503;28;20838;-62
2021/01/31 00:44:50;;;;;;;5.57;4.00;;;4.20;99.90;;;;;;5041633;28;20492;-62
2021/01/31 00:47:17;;;;;;;6.40;4.40;;;4.20;99.90;;;;;;5049819;28;20491;-62
2021/01/31 00:49:44;;;;;;;11.40;4.87;;;4.20;99.90;;;;;;5044699;28;20438;-62
2021/01/31 00:52:10;;;;;;;6.20;3.90;;;4.10;99.90;;;;;;5049923;28;20417;-61
2021/01/31 00:54:36;;;;;;;6.00;4.70;;;4.10;99.90;;;;;;5048975;28;20429;-61
2021/01/31 00:57:05;;;;;;;6.63;4.27;;;4.10;99.90;;;;;;5054333;28;20464;-62
2021/01/31 00:59:31;;;;;;;5.90;4.30;;;4.10;99.90;;;;;;5050535;28;20456;-61
2021/01/31 01:01:57;;;;;;;11.60;4.50;;;4.00;99.90;;;;;;5052918;28;20413;-61
2021/01/31 01:04:23;;;;;;;6.20;4.50;;;4.00;99.90;;;;;;5051872;28;20430;-62
2021/01/31 01:06:49;;;;;;;9.23;4.87;;;4.00;99.90;;;;;;5052189;28;20205;-61
2021/01/31 01:09:14;;;;;;;6.90;4.30;;;4.00;99.90;;;;;;5052625;28;20418;-61
2021/01/31 01:11:41;;;;;;;6.30;4.30;;;4.10;99.90;;;;;;5040809;28;20191;-62
2021/01/31 01:14:07;;;;;;;6.13;4.37;;;4.10;99.90;;;;;;5052747;28;20182;-61
2021/01/31 01:16:33;;;;;;;5.40;4.10;;;4.00;99.90;;;;;;5054164;28;20585;-61
2021/01/31 01:18:59;;;;;;;8.43;4.47;;;4.00;99.90;;;;;;5053898;28;20195;-61
2021/01/31 01:21:25;;;;;;;8.07;4.80;;;4.00;99.90;;;;;;5050129;28;20894;-61
2021/01/31 01:23:51;;;;;;;8.63;5.27;;;4.10;99.90;;;;;;5052632;28;20421;-61
2021/01/31 01:26:16;;;;;;;5.63;4.67;;;4.10;99.90;;;;;;5053046;28;20437;-62
2021/01/31 01:28:42;;;;;;;7.27;3.83;;;4.00;99.90;;;;;;5048097;28;20647;-61
2021/01/31 01:31:08;;;;;;;9.00;4.80;;;4.10;99.90;;;;;;5051156;28;20187;-61
2021/01/31 01:33:34;;;;;;;8.47;4.90;;;4.10;99.90;;;;;;5052963;28;20438;-61
2021/01/31 01:35:59;;;;;;;6.60;4.53;;;4.10;99.90;;;;;;5049752;28;20183;-61
2021/01/31 01:38:25;;;;;;;6.23;3.97;;;4.10;99.90;;;;;;5048634;28;20594;-61
2021/01/31 01:40:54;;;;;;;6.83;4.23;;;4.10;99.90;;;;;;5051296;28;20258;-65
2021/01/31 01:43:21;;;;;;;10.63;4.17;;;4.20;99.90;;;;;;5049328;28;20258;-61
2021/01/31 01:46:07;;;;;;;5.67;4.07;;;4.20;99.90;;;;;;5059128;28;20415;-62
2021/01/31 01:48:34;;;;;;;6.63;4.60;;;4.20;99.90;;;;;;5046515;28;20453;-62
2021/01/31 01:51:00;;;;;;;7.47;3.97;;;4.20;99.90;;;;;;5047458;28;20443;-61
2021/01/31 01:53:28;;;;;;;7.40;4.30;;;4.20;99.90;;;;;;5051960;28;20413;-61
2021/01/31 01:56:17;;;;;;;5.67;3.53;;;4.20;99.90;;;;;;5050746;28;20180;-61
2021/01/31 01:58:44;;;;;;;7.37;4.30;;;4.20;99.90;;;;;;5050893;28;20461;-61
2021/01/31 02:01:10;;;;;;;5.83;3.60;;;4.20;99.90;;;;;;5051383;28;20413;-62
2021/01/31 02:03:41;;;;;;;4.70;3.33;;;4.10;99.90;;;;;;5056239;28;20509;-62
2021/01/31 02:06:17;;;;;;;5.33;3.43;;;4.10;99.90;;;;;;5046358;28;20818;-61
2021/01/31 02:08:43;;;;;;;4.83;3.00;;;4.10;99.90;;;;;;5049803;28;20440;-61
2021/01/31 02:11:16;;;;;;;5.47;3.50;;;4.10;99.90;;;;;;5052690;28;20791;-61
2021/01/31 02:13:46;;;;;;;6.00;3.47;;;4.10;99.90;;;;;;5051262;28;20792;-61
2021/01/31 02:16:44;;;;;;;7.93;4.10;;;4.00;99.90;;;;;;5049721;28;20931;-61
2021/01/31 02:19:15;;;;;;;4.90;3.50;;;4.00;99.90;;;;;;5049304;28;20815;-61
2021/01/31 02:22:12;;;;;;;6.00;3.43;;;4.00;99.90;;;;;;5046532;28;20429;-62
2021/01/31 02:25:05;;;;;;;5.63;3.80;;;4.00;99.90;;;;;;5047469;28;20425;-61
2021/01/31 02:27:58;;;;;;;5.50;3.47;;;4.00;99.90;;;;;;5068970;28;20517;-61
2021/01/31 02:30:47;;;;;;;5.10;3.47;;;4.00;99.90;;;;;;5044715;28;20838;-61
2021/01/31 02:33:32;;;;;;;8.00;4.90;;;4.00;99.90;;;;;;5052430;28;20969;-61
2021/01/31 02:36:27;;;;;;;8.07;4.67;;;4.00;99.90;;;;;;5048529;28;20445;-61
2021/01/31 02:39:07;;;;;;;7.37;4.03;;;4.10;99.90;;;;;;5048300;28;20539;-61
2021/01/31 02:41:44;;;;;;;5.60;4.03;;;4.10;99.90;;;;;;5051954;28;20405;-61
2021/01/31 02:44:18;;;;;;;7.80;4.03;;;4.10;99.90;;;;;;5051704;28;20501;-61
2021/01/31 02:46:59;;;;;;;9.30;4.60;;;4.10;99.90;;;;;;5050270;28;20517;-61
2021/01/31 02:49:33;;;;;;;8.37;4.53;;;4.10;99.90;;;;;;5035568;28;20434;-61
2021/01/31 02:52:23;;;;;;;9.47;5.10;;;4.10;99.90;;;;;;5046693;28;20487;-61
2021/01/31 02:54:57;;;;;;;8.13;4.63;;;4.10;99.90;;;;;;5050089;28;20958;-61
2021/01/31 02:57:39;;;;;;;6.07;4.10;;;4.10;99.90;;;;;;5053508;28;20457;-61
2021/01/31 03:00:12;;;;;;;8.97;3.63;;;4.10;99.90;;;;;;5043562;28;20465;-63
2021/01/31 03:02:48;;;;;;;4.23;3.00;;;4.10;99.90;;;;;;5046347;28;20471;-62
2021/01/31 03:05:20;;;;;;;5.20;3.60;;;4.10;99.90;;;;;;5046700;28;20898;-61
2021/01/31 03:08:13;;;;;;;4.33;2.90;;;4.00;99.90;;;;;;5049751;28;20805;-61
2021/01/31 03:11:03;;;;;;;5.23;3.90;;;4.00;99.90;;;;;;5047347;28;20438;-61
2021/01/31 03:13:35;;;;;;;5.40;3.77;;;3.90;99.90;;;;;;5042260;28;20895;-61
2021/01/31 03:16:04;;;;;;;6.93;3.70;;;3.90;99.90;;;;;;5051514;28;20798;-62
2021/01/31 03:18:38;;;;;;;5.00;3.63;;;3.80;99.90;;;;;;5042755;28;20464;-62
2021/01/31 03:21:13;;;;;;;6.30;3.60;;;3.80;99.90;;;;;;5050831;28;20444;-61
2021/01/31 03:24:00;;;;;;;6.30;3.67;;;3.80;99.90;;;;;;5050288;28;20416;-61
2021/01/31 03:26:57;;;;;;;6.83;4.30;;;3.80;99.90;;;;;;5051869;28;20429;-61
2021/01/31 03:29:23;;;;;;;9.20;5.00;;;3.80;99.90;;;;;;5033778;28;20430;-61
2021/01/31 03:31:57;;;;;;;12.10;5.80;;;3.80;99.90;;;;;;5050974;28;20527;-61
2021/01/31 03:34:30;;;;;;;9.47;5.27;;;3.80;99.90;;;;;;5051236;28;20417;-62
2021/01/31 03:37:01;;;;;;;9.97;5.27;;;3.90;99.90;;;;;;5048115;28;20445;-62
2021/01/31 03:39:28;;;;;;;7.43;4.80;;;3.90;99.90;;;;;;5049178;28;20472;-61
2021/01/31 03:41:54;;;;;;;13.27;4.80;;;3.90;99.90;;;;;;5051288;28;20432;-61
2021/01/31 03:44:21;;;;;;;10.90;5.33;;;3.90;99.90;;;;;;5050554;28;20409;-60
2021/01/31 03:46:59;;;;;;;8.90;4.90;;;3.90;99.90;;;;;;5049439;28;20440;-62
2021/01/31 03:49:37;;;;;;;9.20;5.63;;;3.90;99.90;;;;;;5035207;28;20963;-61
2021/01/31 03:52:03;;;;;;;8.80;5.53;;;3.90;99.90;;;;;;5045393;28;20425;-61
2021/01/31 03:54:29;;;;;;;13.60;6.33;;;4.00;99.90;;;;;;5050899;28;20493;-61
2021/01/31 03:57:33;;;;;;;12.80;6.23;;;4.00;99.90;;;;;;5043662;28;20265;-61
2021/01/31 04:00:22;;;;;;;10.27;4.90;;;4.00;99.90;;;;;;5023356;28;20243;-61
2021/01/31 04:02:58;;;;;;;8.60;5.03;;;4.00;99.90;;;;;;5049999;28;20764;-61
2021/01/31 04:05:27;;;;;;;9.20;4.43;;;4.00;99.90;;;;;;5045050;28;20560;-61
2021/01/31 04:07:56;;;;;;;11.53;4.57;;;4.00;99.90;;;;;;5047808;28;20437;-61
2021/01/31 04:10:25;;;;;;;6.80;4.37;;;4.00;99.90;;;;;;5050317;28;20466;-61
2021/01/31 04:12:56;;;;;;;9.03;4.70;;;4.00;99.90;;;;;;5046525;28;21455;-61
2021/01/31 04:15:29;;;;;;;8.03;4.20;;;3.90;99.90;;;;;;5049661;28;20498;-61
2021/01/31 04:17:55;;;;;;;8.30;4.73;;;3.90;99.90;;;;;;5049591;28;20536;-61
2021/01/31 04:20:20;;;;;;;7.77;4.50;;;3.90;99.90;;;;;;5047126;28;20862;-62
2021/01/31 04:22:46;;;;;;;9.63;5.20;;;3.80;99.90;;;;;;5047952;28;20171;-63
2021/01/31 04:25:12;;;;;;;10.00;5.10;;;3.80;99.90;;;;;;5062561;28;20175;-61
2021/01/31 04:27:38;;;;;;;8.97;5.00;;;3.70;99.90;;;;;;5052022;28;20207;-60
2021/01/31 04:30:06;;;;;;;12.83;5.70;;;3.70;99.90;;;;;;5049289;28;20826;-60
2021/01/31 04:32:31;;;;;;;14.00;6.17;;;3.70;99.90;;;;;;5050101;28;20213;-61
2021/01/31 04:34:57;;;;;;;32.33;7.30;;;3.70;99.90;;;;;;5047324;28;20424;-61
2021/01/31 04:37:24;;;;;;;87.73;8.80;;;3.70;99.90;;;;;;5049707;28;20215;-60
2021/01/31 04:39:50;;;;;;;123.57;8.73;;;3.70;99.90;;;;;;5048526;28;20309;-61
2021/01/31 04:42:20;;;;;;;18.50;6.27;;;3.70;99.90;;;;;;5049794;28;20489;-61
2021/01/31 04:44:49;;;;;;;37.63;7.40;;;3.60;99.90;;;;;;5046461;28;20188;-61
2021/01/31 04:47:26;;;;;;;22.63;5.97;;;3.60;99.90;;;;;;5038062;28;20523;-61
2021/01/31 04:50:06;;;;;;;29.77;7.33;;;3.70;99.90;;;;;;5038132;28;20433;-61
2021/01/31 04:52:53;;;;;;;29.60;7.03;;;3.70;99.90;;;;;;5048850;28;20432;-61
2021/01/31 04:55:47;;;;;;;50.30;7.33;;;3.70;99.90;;;;;;5044864;28;20465;-61
2021/01/31 04:58:16;;;;;;;31.87;6.70;;;3.70;99.90;;;;;;5045197;28;20516;-62
2021/01/31 05:00:56;;;;;;;21.50;6.83;;;3.70;99.90;;;;;;5044890;28;20532;-60
2021/01/31 05:03:24;;;;;;;26.23;6.33;;;3.70;99.90;;;;;;5045797;28;20519;-62
2021/01/31 05:06:04;;;;;;;21.83;8.03;;;3.70;99.90;;;;;;5046647;28;20466;-61
2021/01/31 05:08:32;;;;;;;19.63;7.60;;;3.70;99.90;;;;;;5062783;28;20530;-60
2021/01/31 05:11:05;;;;;;;22.30;7.47;;;3.70;99.90;;;;;;5050365;28;20441;-61
2021/01/31 05:14:35;;;;;;;44.27;7.40;;;3.70;99.90;;;;;;5050598;28;20852;-61
2021/01/31 05:17:01;;;;;;;37.27;7.90;;;3.70;99.90;;;;;;4939099;28;20458;-61
2021/01/31 05:19:31;;;;;;;26.63;8.07;;;3.70;99.90;;;;;;5035903;28;20446;-61
2021/01/31 05:21:57;;;;;;;33.83;7.83;;;3.70;99.90;;;;;;5049876;28;20637;-61
2021/01/31 05:24:24;;;;;;;40.30;7.00;;;3.70;99.90;;;;;;5046567;28;20541;-61
2021/01/31 05:26:57;;;;;;;24.50;6.93;;;3.70;99.90;;;;;;5051176;28;20465;-62
2021/01/31 05:29:34;;;;;;;38.53;8.33;;;3.70;99.90;;;;;;5049468;28;20576;-62
2021/01/31 05:32:08;;;;;;;31.23;6.67;;;3.70;99.90;;;;;;5033970;28;20438;-62
2021/01/31 05:34:40;;;;;;;20.17;7.00;;;3.70;99.90;;;;;;5043818;28;20425;-61
2021/01/31 05:37:11;;;;;;;24.77;6.40;;;3.60;99.90;;;;;;5049514;28;20958;-61
2021/01/31 05:40:00;;;;;;;13.53;5.47;;;3.60;99.90;;;;;;5041919;28;20484;-61
2021/01/31 05:42:29;;;;;;;13.97;5.40;;;3.60;99.90;;;;;;5045439;28;20460;-61
2021/01/31 05:45:05;;;;;;;19.33;6.40;;;3.60;99.90;;;;;;5052354;28;20422;-61
2021/01/31 05:47:35;;;;;;;20.00;7.03;;;3.50;99.90;;;;;;5053897;28;20447;-60
2021/01/31 05:50:20;;;;;;;52.53;7.63;;;3.50;99.90;;;;;;5046692;28;20496;-61
2021/01/31 05:52:46;;;;;;;22.37;5.67;;;3.50;99.90;;;;;;5051509;28;20429;-61
2021/01/31 05:55:26;;;;;;;47.73;7.60;;;3.50;99.90;;;;;;5052779;28;20530;-61
2021/01/31 05:57:52;;;;;;;29.53;7.23;;;3.50;99.90;;;;;;5056826;28;20261;-61
2021/01/31 06:00:27;;;;;;;22.57;7.27;;;3.40;99.90;;;;;;5049928;28;20971;-61
2021/01/31 06:03:00;;;;;;;24.10;7.27;;;3.40;99.90;;;;;;5046202;28;20425;-61
2021/01/31 06:05:28;;;;;;;30.03;7.67;;;3.40;99.90;;;;;;5052663;28;20435;-61
2021/01/31 06:08:01;;;;;;;30.70;8.20;;;3.50;99.90;;;;;;5052022;28;20566;-61
2021/01/31 06:10:28;;;;;;;33.03;8.20;;;3.40;99.90;;;;;;5051822;28;20433;-62
2021/01/31 06:13:20;;;;;;;29.67;9.20;;;3.40;99.90;;;;;;5049963;28;20420;-61
2021/01/31 06:15:59;;;;;;;37.20;12.43;;;3.40;99.90;;;;;;5033552;28;20498;-62
2021/01/31 06:18:29;;;;;;;42.77;13.50;;;3.40;99.90;;;;;;5050593;28;20499;-63
2021/01/31 06:21:09;;;;;;;23.67;9.23;;;3.40;99.90;;;;;;5051553;28;20457;-62
2021/01/31 06:23:53;;;;;;;24.23;8.77;;;3.50;99.90;;;;;;5044442;28;20440;-61
2021/01/31 06:26:38;;;;;;;33.00;8.50;;;3.50;99.90;;;;;;5044638;28;20434;-61
2021/01/31 06:29:09;;;;;;;18.97;7.87;;;3.50;99.90;;;;;;5039745;28;20583;-62
2021/01/31 06:31:43;;;;;;;16.33;7.23;;;3.50;99.90;;;;;;5050500;28;20444;-62
2021/01/31 06:34:09;;;;;;;19.47;6.93;;;3.50;99.90;;;;;;5045333;28;20441;-61
2021/01/31 06:37:03;;;;;;;17.43;6.80;;;3.50;99.90;;;;;;5049401;28;20429;-61
2021/01/31 06:39:34;;;;;;;24.00;7.10;;;3.50;99.90;;;;;;5052427;28;20916;-61
2021/01/31 06:42:11;;;;;;;24.67;7.33;;;3.50;99.90;;;;;;5047158;28;20434;-61
2021/01/31 06:44:51;;;;;;;14.80;7.33;;;3.50;99.90;;;;;;5049524;28;20444;-58
2021/01/31 06:48:04;;;;;;;15.97;6.70;;;3.50;99.90;;;;;;5052184;28;20537;-60
2021/01/31 06:51:05;;;;;;;17.93;8.03;;;3.50;99.90;;;;;;5045904;28;20469;-60
2021/01/31 06:53:36;;;;;;;10.30;5.47;;;3.50;99.90;;;;;;5045598;28;20953;-58
2021/01/31 06:56:14;;;;;;;17.07;7.03;;;3.50;99.90;;;;;;5052350;28;20425;-59
2021/01/31 06:58:58;;;;;;;16.00;5.90;;;3.50;99.90;;;;;;5051882;28;20465;-59
2021/01/31 07:01:51;;;;;;;17.20;6.47;;;3.50;99.90;;;;;;5046960;28;20449;-60
2021/01/31 07:04:29;;;;;;;16.13;6.77;;;3.50;99.90;;;;;;5039945;28;21044;-59
2021/01/31 07:07:11;;;;;;;11.40;5.50;;;3.50;99.90;;;;;;5048059;28;20448;-58
2021/01/31 07:09:53;;;;;;;13.13;6.00;;;3.50;99.90;;;;;;5043165;28;20456;-60
2021/01/31 07:12:26;;;;;;;12.60;5.67;;;3.50;99.90;;;;;;5048106;28;20444;-61
2021/01/31 07:15:04;;;;;;;9.47;4.60;;;3.50;99.90;;;;;;5047785;28;21525;-61
2021/01/31 07:17:36;;;;;;;9.80;4.87;;;3.50;99.90;;;;;;5048963;28;21019;-60
2021/01/31 07:20:06;;;;;;;9.20;4.17;;;3.60;99.90;;;;;;5047673;28;20517;-61
2021/01/31 07:22:36;;;;;;;6.83;4.47;;;3.50;99.90;;;;;;5047791;28;20431;-61
2021/01/31 07:25:28;;;;;;;8.50;4.57;;;3.60;99.90;;;;;;5051154;28;20433;-60
2021/01/31 07:27:57;;;;;;;7.90;4.30;;;3.60;99.90;;;;;;5019346;28;20471;-62
2021/01/31 07:30:24;;;;;;;6.10;3.73;;;3.60;99.90;;;;;;5045992;28;20523;-61
2021/01/31 07:33:20;;;;;;;6.20;4.10;;;3.60;99.90;;;;;;5039937;28;22790;-60
2021/01/31 07:36:02;;;;;;;7.30;4.47;;;3.60;99.90;;;;;;5049043;28;20787;-61
2021/01/31 07:38:48;;;;;;;7.13;5.00;;;3.60;99.90;;;;;;5038804;28;21227;-61
2021/01/31 07:41:16;;;;;;;6.87;3.90;;;3.50;99.90;;;;;;5046792;28;20430;-61
2021/01/31 07:43:43;;;;;;;8.90;4.90;;;3.50;99.90;;;;;;5043757;28;20478;-61
2021/01/31 07:46:12;;;;;;;5.70;3.83;;;3.50;99.90;;;;;;5049650;28;20889;-63
2021/01/31 07:48:44;;;;;;;6.30;4.00;;;3.50;99.90;;;;;;5046151;28;20457;-60
2021/01/31 07:51:18;;;;;;;7.40;4.60;;;3.40;99.90;;;;;;5043976;28;20453;-59
2021/01/31 07:53:45;;;;;;;7.23;4.43;;;3.40;99.90;;;;;;5047297;28;20457;-60
2021/01/31 07:56:31;;;;;;;7.93;4.40;;;3.40;99.90;;;;;;5047235;28;20438;-60
2021/01/31 07:59:19;;;;;;;6.50;4.23;;;3.40;99.90;;;;;;5048562;28;20468;-60
2021/01/31 08:01:44;;;;;;;9.60;4.20;;;3.40;99.90;;;;;;5041674;28;20432;-61
2021/01/31 08:04:16;;;;;;;8.07;4.33;;;3.40;99.90;;;;;;5047029;28;20468;-61
2021/01/31 08:06:44;;;;;;;9.53;5.23;;;3.40;99.90;;;;;;5043964;28;20630;-61
2021/01/31 08:09:31;;;;;;;8.93;5.37;;;3.40;99.90;;;;;;5038192;28;20813;-60
2021/01/31 08:12:07;;;;;;;9.17;4.87;;;3.40;99.90;;;;;;5037649;28;20446;-62
2021/01/31 08:15:08;;;;;;;7.77;4.50;;;3.50;99.90;;;;;;5035245;28;20429;-58
2021/01/31 08:17:44;;;;;;;7.70;4.60;;;3.50;99.90;;;;;;5048665;28;20468;-60
2021/01/31 08:20:27;;;;;;;5.97;4.17;;;3.50;99.90;;;;;;5044080;28;20464;-61
2021/01/31 08:22:55;;;;;;;8.67;4.60;;;3.50;99.90;;;;;;5038524;28;20527;-57
2021/01/31 08:25:54;;;;;;;8.10;4.73;;;3.50;99.90;;;;;;5036720;28;20434;-61
2021/01/31 08:28:25;;;;;;;6.77;4.90;;;3.50;99.90;;;;;;5035688;28;21013;-61
2021/01/31 08:31:14;;;;;;;7.10;4.77;;;3.50;99.90;;;;;;5035528;28;20437;-61
2021/01/31 08:33:57;;;;;;;7.40;5.17;;;3.60;99.90;;;;;;5036818;28;20487;-61
2021/01/31 08:36:33;;;;;;;8.40;4.90;;;3.60;99.90;;;;;;5035059;28;20437;-61
2021/01/31 08:38:59;;;;;;;9.60;5.53;;;3.60;99.90;;;;;;5038829;28;21337;-60
2021/01/31 08:41:25;;;;;;;8.97;4.80;;;3.50;99.90;;;;;;5036034;28;20445;-61
2021/01/31 08:43:54;;;;;;;7.80;5.00;;;3.50;99.90;;;;;;5037290;28;20850;-61
2021/01/31 08:46:35;;;;;;;6.17;4.43;;;3.50;99.90;;;;;;5036001;28;20260;-62
2021/01/31 08:49:02;;;;;;;8.43;4.50;;;3.50;99.90;;;;;;5034558;28;20452;-60
2021/01/31 08:51:33;;;;;;;6.37;4.83;;;3.50;99.90;;;;;;5038102;28;20572;-61
2021/01/31 08:54:05;;;;;;;6.67;4.50;;;3.50;99.90;;;;;;5041509;28;20433;-61
2021/01/31 08:56:57;;;;;;;8.07;5.30;;;3.50;99.90;;;;;;5034183;28;20442;-61
2021/01/31 08:59:28;;;;;;;6.77;4.50;;;3.40;99.90;;;;;;5035713;28;20476;-61
2021/01/31 09:02:27;;;;;;;7.13;4.90;;;3.50;99.90;;;;;;5035343;28;20438;-62
2021/01/31 09:05:12;;;;;;;5.93;3.90;;;3.50;99.90;;;;;;5037781;28;20525;-61
2021/01/31 09:07:51;;;;;;;8.90;5.30;;;3.50;99.90;;;;;;5036381;28;20452;-61
2021/01/31 09:10:22;;;;;;;8.73;4.90;;;3.50;99.90;;;;;;5035284;28;20551;-61
2021/01/31 09:12:48;;;;;;;9.57;4.97;;;3.60;99.90;;;;;;5037659;28;20433;-62
2021/01/31 09:15:26;;;;;;;14.00;5.63;;;3.70;99.90;;;;;;5035105;28;20851;-61
2021/01/31 09:17:51;;;;;;;8.30;4.63;;;3.70;99.90;;;;;;5036822;28;20441;-61
2021/01/31 09:20:28;;;;;;;7.60;4.77;;;3.80;99.90;;;;;;5031914;28;20907;-61
2021/01/31 09:23:04;;;;;;;6.33;4.77;;;3.90;99.90;;;;;;5036730;28;20437;-60
2021/01/31 09:25:34;;;;;;;8.37;5.00;;;4.00;99.90;;;;;;5038091;28;20437;-61
2021/01/31 09:28:10;;;;;;;8.87;4.40;;;4.00;99.90;;;;;;5045856;28;20459;-61
2021/01/31 09:30:39;;;;;;;7.67;4.40;;;4.00;99.90;;;;;;5041094;28;20436;-62
2021/01/31 09:33:13;;;;;;;7.27;4.70;;;4.10;99.90;;;;;;5040537;28;20429;-61
2021/01/31 09:35:39;;;;;;;7.80;5.33;;;4.10;99.90;;;;;;5046985;28;20445;-61
2021/01/31 09:38:28;;;;;;;8.80;5.33;;;4.10;99.90;;;;;;5044305;28;20469;-61
2021/01/31 09:41:00;;;;;;;8.10;4.97;;;4.10;99.90;;;;;;5040413;28;21018;-61
2021/01/31 09:43:32;;;;;;;8.00;5.47;;;4.10;99.90;;;;;;5041091;28;20460;-61
2021/01/31 09:46:01;;;;;;;9.30;4.70;;;4.10;99.90;;;;;;5049344;28;20473;-61
2021/01/31 09:48:47;;;;;;;11.73;5.43;;;4.10;99.90;;;;;;5035456;28;20548;-61
2021/01/31 09:51:28;;;;;;;9.13;5.00;;;4.10;99.90;;;;;;5048781;28;21749;-62
2021/01/31 09:54:29;;;;;;;11.70;5.33;;;4.10;99.90;;;;;;5050072;28;22790;-61
2021/01/31 09:57:14;;;;;;;8.37;4.60;;;4.10;99.90;;;;;;5039271;28;20454;-60
2021/01/31 09:59:43;;;;;;;6.20;3.90;;;4.10;99.90;;;;;;5041662;28;21005;-58
2021/01/31 10:02:25;;;;;;;8.43;4.47;;;4.00;99.90;;;;;;5043537;28;20870;-60
2021/01/31 10:05:05;;;;;;;7.93;4.37;;;4.00;99.90;;;;;;5046510;28;20464;-62
2021/01/31 10:07:46;;;;;;;5.70;4.43;;;4.00;99.90;;;;;;5045141;28;20466;-61
2021/01/31 10:10:40;;;;;;;8.10;5.10;;;4.00;99.90;;;;;;5043974;28;20461;-61
2021/01/31 10:13:36;;;;;;;7.07;4.43;;;4.00;99.90;;;;;;5036177;28;20437;-61
2021/01/31 10:16:14;;;;;;;8.77;5.40;;;4.00;99.90;;;;;;5029898;28;20971;-63
2021/01/31 10:18:44;;;;;;;10.07;5.50;;;3.90;99.90;;;;;;5032169;28;21200;-61
2021/01/31 10:21:17;;;;;;;8.43;5.60;;;3.90;99.90;;;;;;5035855;28;20982;-60
2021/01/31 10:23:44;;;;;;;9.03;5.53;;;3.90;99.90;;;;;;5038597;28;20437;-61
2021/01/31 10:26:19;;;;;;;7.83;4.70;;;3.90;99.90;;;;;;5032410;28;20437;-60
2021/01/31 10:28:51;;;;;;;7.80;4.53;;;3.90;99.90;;;;;;5039494;28;20475;-61
2021/01/31 10:31:33;;;;;;;6.80;4.40;;;4.00;99.90;;;;;;5042258;28;20549;-62
2021/01/31 10:34:01;;;;;;;7.57;4.63;;;4.00;99.90;;;;;;5036304;28;20452;-62
2021/01/31 10:36:41;;;;;;;8.27;5.00;;;4.00;99.90;;;;;;5037842;28;20970;-62
2021/01/31 10:39:10;;;;;;;7.30;4.50;;;4.00;99.90;;;;;;5039771;28;20460;-62
2021/01/31 10:41:40;;;;;;;7.63;5.00;;;4.00;99.90;;;;;;5034828;28;20855;-62
2021/01/31 10:44:12;;;;;;;8.53;5.10;;;4.00;99.90;;;;;;5037072;28;20474;-62
2021/01/31 10:46:39;;;;;;;6.93;4.80;;;4.00;99.90;;;;;;5038365;28;20430;-62
2021/01/31 10:49:06;;;;;;;9.20;5.20;;;4.00;99.90;;;;;;5039155;28;20567;-61
2021/01/31 10:51:33;;;;;;;5.60;4.30;;;4.00;99.90;;;;;;5033943;28;20449;-62
2021/01/31 10:54:01;;;;;;;6.73;4.63;;;4.00;99.90;;;;;;5040487;28;20801;-62
2021/01/31 10:56:27;;;;;;;8.07;4.70;;;4.00;99.90;;;;;;5036362;28;20534;-61
2021/01/31 10:58:56;;;;;;;7.07;4.93;;;4.00;99.90;;;;;;5035018;28;20477;-61
2021/01/31 11:01:25;;;;;;;8.73;5.27;;;4.10;99.90;;;;;;5033055;28;20532;-62
2021/01/31 11:03:51;;;;;;;9.00;5.60;;;4.10;99.90;;;;;;5037986;28;21002;-61
2021/01/31 11:06:20;;;;;;;15.93;5.90;;;4.10;99.90;;;;;;5035919;28;21124;-61
2021/01/31 11:08:46;;;;;;;9.23;4.80;;;4.20;99.90;;;;;;5035234;28;20462;-61
2021/01/31 11:11:12;;;;;;;7.13;4.90;;;4.20;99.90;;;;;;5034600;28;20484;-62
2021/01/31 11:13:38;;;;;;;6.60;4.90;;;4.20;99.90;;;;;;5038921;28;20441;-61
2021/01/31 11:16:04;;;;;;;8.83;5.37;;;4.20;99.90;;;;;;5034148;28;20261;-62
2021/01/31 11:18:30;;;;;;;7.80;4.93;;;4.10;99.90;;;;;;5036753;28;20220;-61
2021/01/31 11:20:58;;;;;;;6.97;4.50;;;4.10;99.90;;;;;;5036717;28;20190;-61
2021/01/31 11:23:25;;;;;;;6.30;4.60;;;4.00;99.90;;;;;;5038793;28;20441;-61
2021/01/31 11:25:51;;;;;;;7.13;4.53;;;4.00;99.90;;;;;;5037736;28;20537;-59
2021/01/31 11:28:17;;;;;;;5.77;4.60;;;4.00;99.90;;;;;;5026411;28;20469;-62
2021/01/31 11:30:47;;;;;;;7.43;4.50;;;4.00;99.90;;;;;;5038261;28;20186;-62
2021/01/31 11:33:13;;;;;;;7.70;4.87;;;4.00;99.90;;;;;;5039346;28;20481;-60
2021/01/31 11:35:39;;;;;;;12.73;7.00;;;4.00;99.90;;;;;;5057320;22;20454;-61
2021/01/31 11:38:05;;;;;;;9.97;5.87;;;4.00;99.90;;;;;;5044537;28;20446;-60
2021/01/31 11:40:31;;;;;;;8.80;5.40;;;4.00;99.90;;;;;;5040801;28;20202;-58
2021/01/31 11:42:59;;;;;;;11.70;6.50;;;4.00;99.90;;;;;;5035997;28;20720;-58
2021/01/31 11:45:29;;;;;;;9.40;5.53;;;3.90;99.90;;;;;;5042870;28;20211;-59
2021/01/31 11:47:55;;;;;;;7.40;4.80;;;4.00;99.90;;;;;;5047231;28;20448;-61
2021/01/31 11:50:24;;;;;;;8.43;5.40;;;4.00;99.90;;;;;;5040846;28;20453;-59
2021/01/31 11:52:49;;;;;;;15.53;6.80;;;4.00;99.90;;;;;;5027148;28;20460;-56
2021/01/31 11:55:16;;;;;;;8.20;5.10;;;4.00;99.90;;;;;;5020594;28;21199;-56
2021/01/31 11:57:47;;;;;;;8.50;5.73;;;4.00;99.90;;;;;;5023870;28;20219;-57
2021/01/31 12:00:16;;;;;;;9.80;5.37;;;4.10;99.90;;;;;;5023119;28;20458;-58
2021/01/31 12:02:41;;;;;;;13.20;7.40;;;4.10;99.90;;;;;;5019435;28;21240;-56
2021/01/31 12:05:17;;;;;;;11.80;7.10;;;4.20;99.90;;;;;;5014433;28;20431;-56
2021/01/31 12:07:43;;;;;;;8.00;5.30;;;4.20;99.90;;;;;;5016819;28;20437;-54
2021/01/31 12:10:11;;;;;;;8.13;5.70;;;4.20;99.90;;;;;;5020111;28;20538;-66
2021/01/31 12:12:38;;;;;;;11.00;5.77;;;4.20;99.90;;;;;;5026823;28;20200;-62
2021/01/31 12:15:07;;;;;;;8.23;4.97;;;4.20;99.90;;;;;;5019865;28;20489;-62
2021/01/31 12:17:33;;;;;;;8.03;5.23;;;4.20;99.90;;;;;;5034134;28;21758;-69
2021/01/31 12:19:59;;;;;;;9.30;5.53;;;4.20;99.90;;;;;;5035031;28;20478;-59
2021/01/31 12:22:25;;;;;;;8.63;5.33;;;4.20;99.90;;;;;;5024148;28;20975;-58
2021/01/31 12:24:51;;;;;;;7.33;4.43;;;4.20;99.90;;;;;;5024518;28;20262;-55
2021/01/31 12:27:21;;;;;;;11.63;5.53;;;4.20;99.90;;;;;;5021542;28;20457;-55
2021/01/31 12:29:50;;;;;;;7.17;4.57;;;4.20;99.90;;;;;;5018171;28;20580;-58
2021/01/31 12:32:16;;;;;;;8.83;4.90;;;4.30;99.90;;;;;;5022363;28;20442;-57
2021/01/31 12:34:42;;;;;;;8.40;5.20;;;4.30;99.90;;;;;;5020771;28;20473;-56
2021/01/31 12:37:08;;;;;;;7.60;4.93;;;4.30;99.90;;;;;;5016415;28;20472;-58
2021/01/31 12:39:34;;;;;;;8.83;5.13;;;4.30;99.90;;;;;;5024401;28;20466;-56
2021/01/31 12:42:00;;;;;;;9.83;6.17;;;4.40;99.90;;;;;;5021328;28;20187;-56
2021/01/31 12:44:25;;;;;;;8.43;5.73;;;4.40;99.90;;;;;;5023863;28;20238;-59
2021/01/31 12:46:51;;;;;;;9.50;5.57;;;4.40;99.90;;;;;;5012707;28;20217;-58
2021/01/31 12:49:17;;;;;;;11.23;5.80;;;4.50;99.90;;;;;;5018726;28;20453;-58
2021/01/31 12:51:43;;;;;;;15.83;7.87;;;4.50;99.90;;;;;;5027046;28;20742;-61
2021/01/31 12:54:09;;;;;;;8.90;5.37;;;4.50;99.90;;;;;;5023342;28;20271;-59
2021/01/31 12:56:34;;;;;;;9.63;6.47;;;4.50;99.90;;;;;;5025790;28;20650;-57
2021/01/31 12:59:00;;;;;;;8.63;6.00;;;4.50;99.90;;;;;;5018352;28;20250;-57
2021/01/31 13:01:25;;;;;;;10.20;6.20;;;4.60;99.90;;;;;;5015538;28;20184;-58
2021/01/31 13:03:52;;;;;;;9.43;6.87;;;4.50;99.90;;;;;;5019901;28;20191;-58
2021/01/31 13:06:20;;;;;;;12.20;6.87;;;4.50;99.90;;;;;;5021788;28;20753;-59
2021/01/31 13:08:45;;;;;;;12.90;7.77;;;4.50;99.90;;;;;;5019547;28;20442;-61
2021/01/31 13:11:12;;;;;;;10.87;6.63;;;4.50;99.90;;;;;;5022859;28;20521;-62
2021/01/31 13:13:37;;;;;;;14.20;6.17;;;4.40;99.90;;;;;;5015776;28;20499;-62
2021/01/31 13:16:04;;;;;;;11.57;6.37;;;4.30;99.90;;;;;;5020080;28;20693;-59
2021/01/31 13:18:29;;;;;;;10.13;6.33;;;4.30;99.90;;;;;;5020327;28;20215;-61
2021/01/31 13:20:55;;;;;;;29.40;13.97;;;4.30;99.90;;;;;;5024761;28;20859;-60
2021/01/31 13:23:21;;;;;;;20.13;9.30;;;4.30;99.90;;;;;;5026878;28;20884;-62